Latest Weather Observations for Lockhart River

IDQ60801

Issued at 9:02 am EST Monday 25 May 2015 (issued every 30 minutes, with the page automatically refreshed every 10 minutes)

About weather observations | Map of weather stations | Latest weather observations for QLD | Other Formats
Station Details ID: 028008 Name: LOCKHART RIVER AIRPORT Lat: -12.79 Lon: 143.30 Height: 18.5 m
Data from the previous 72 hours. | See also: Recent months at Lockhart River
Date/Time
EST
Temp
°C
App
Temp
°C
Dew
Point
Rel
Hum
%
Delta-T
°C
Wind Press
QNH
hPa
Press
MSL
hPa
Rain
since 9 am
mm
Dir
 
Spd
km/h
Gust
km/h
Spd
kts
Gust
kts
25/09:00am 26.3 25.8 22.2 78 2.7 ESE 28 43 15 23 1017.1 - 0.2
25/08:30am 25.8 26.4 22.1 80 2.5 SE 22 37 12 20 1016.8 - 0.2
25/08:04am 25.5 26.2 22.2 82 2.2 SE 22 39 12 21 1016.5 - 0.2
25/08:00am 25.4 25.3 22.3 83 2.1 ESE 26 41 14 22 1016.5 - 0.2
25/07:39am 25.2 26.3 22.3 84 1.9 SE 20 30 11 16 1016.3 - 0.2
25/07:30am 25.1 25.9 22.4 85 1.8 SE 22 30 12 16 1016.2 - 0.2
25/07:25am 25.0 25.7 22.3 85 1.8 SE 22 30 12 16 1016.2 - 0.2
25/07:00am 24.6 25.5 22.7 89 1.3 SE 22 33 12 18 1016.0 - 0.2
25/06:30am 24.3 24.8 22.7 91 1.1 SE 24 35 13 19 1015.8 - 0.2
25/06:00am 23.7 25.1 22.5 93 0.8 SE 19 24 10 13 1015.4 1015.3 0.2
25/05:30am 23.6 24.9 22.6 94 0.7 SE 20 33 11 18 1015.3 - 0.2
25/05:00am 23.6 24.4 22.4 93 0.8 SE 22 32 12 17 1015.1 - 0.0
25/04:30am 23.5 25.4 22.7 95 0.5 SE 17 24 9 13 1015.2 - 0.0
25/04:00am 23.4 24.7 22.4 94 0.7 SE 19 26 10 14 1015.1 - 0.0
25/03:30am 23.7 24.0 22.3 92 0.9 SE 24 37 13 20 1015.3 - 0.0
25/03:00am 23.9 25.2 22.3 91 1.1 SE 19 28 10 15 1015.3 1015.2 0.0
25/02:30am 23.9 24.6 22.2 90 1.1 SE 22 30 12 16 1015.5 - 0.0
25/02:00am 24.2 23.6 21.9 87 1.5 SE 28 43 15 23 1015.7 - 0.0
25/01:56am 24.2 23.4 21.7 86 1.7 SE 28 37 15 20 1015.7 - 0.0
25/01:52am 24.4 23.4 21.9 86 1.7 SE 30 43 16 23 1015.8 - 0.0
25/01:30am 23.7 24.7 22.1 91 1.1 SE 20 32 11 17 1015.8 - 0.0
25/01:05am 24.0 26.1 21.7 87 1.5 SE 13 33 7 18 1016.1 - 0.0
25/01:00am 24.6 25.7 21.3 82 2.2 SE 17 30 9 16 1016.1 - 0.0
25/12:30am 25.5 27.7 21.2 77 2.8 SE 11 30 6 16 1016.3 - 0.0
25/12:00am 25.5 26.1 21.4 78 2.7 SE 20 30 11 16 1016.5 1016.4 0.0
 
Date/Time
EST
Temp
°C
App
Temp
°C
Dew
Point
Rel
Hum
%
Delta-T
°C
Wind Press
QNH
hPa
Press
MSL
hPa
Rain
since 9 am
mm
Dir
 
Spd
km/h
Gust
km/h
Spd
kts
Gust
kts
24/11:30pm 25.5 25.5 21.0 76 3.0 SE 22 28 12 15 1016.6 - 0.0
24/11:00pm 25.4 25.5 21.1 77 2.8 SE 22 30 12 16 1016.7 - 0.0
24/10:30pm 25.4 25.6 21.3 78 2.7 SE 22 30 12 16 1016.8 - 0.0
24/10:00pm 25.4 25.5 21.1 77 2.8 SE 22 28 12 15 1016.8 - 0.0
24/09:30pm 25.5 25.8 20.7 75 3.1 SE 20 28 11 15 1016.7 - 0.0
24/09:00pm 25.5 25.3 20.5 74 3.3 SE 22 28 12 15 1016.7 1016.6 0.0
24/08:30pm 25.6 26.3 20.4 73 3.4 SE 17 30 9 16 1016.5 - 0.0
24/08:00pm 25.5 26.2 20.5 74 3.3 SE 17 30 9 16 1016.3 - 0.0
24/07:30pm 25.5 25.8 20.7 75 3.1 SE 20 28 11 15 1015.8 - 0.0
24/07:00pm 25.3 25.1 20.5 75 3.1 SE 22 28 12 15 1015.5 - 0.0
24/06:30pm 25.4 26.4 20.2 73 3.4 SE 15 28 8 15 1015.4 - 0.0
24/06:00pm 25.3 27.9 20.1 73 3.4 SE 6 30 3 16 1015.2 1015.1 0.0
24/05:30pm 25.5 25.2 20.3 73 3.4 SE 22 30 12 16 1014.9 - 0.0
24/05:00pm 25.6 25.7 20.4 73 3.4 SE 20 30 11 16 1014.7 - 0.0
24/04:30pm 25.7 26.6 20.0 71 3.7 SE 15 33 8 18 1014.4 - 0.0
24/04:00pm 26.4 26.5 20.0 68 4.2 SE 19 30 10 16 1014.1 - 0.0
24/03:30pm 26.2 27.0 19.8 68 4.2 SE 15 33 8 18 1013.9 - 0.0
24/03:00pm 26.6 25.2 20.4 69 4.1 SE 28 37 15 20 1013.8 1013.7 0.0
24/02:30pm 26.3 25.3 20.4 70 3.9 SE 26 41 14 22 1014.1 - 0.0
24/02:00pm 26.7 25.1 20.1 67 4.3 SE 28 41 15 22 1014.2 - 0.0
24/01:30pm 26.5 24.9 20.1 68 4.2 ESE 28 41 15 22 1014.5 - 0.0
24/01:00pm 26.4 25.5 20.7 71 3.7 ESE 26 41 14 22 1014.9 - 0.0
24/12:30pm 26.3 24.0 20.2 69 4.0 ESE 32 46 17 25 1015.3 - 0.0
24/12:07pm 26.8 25.3 20.2 67 4.3 SE 28 46 15 25 1015.6 - 0.0
24/12:00pm 26.5 25.4 21.0 72 3.6 SE 28 39 15 21 1015.6 1015.5 0.0
24/11:30am 26.3 25.0 20.6 71 3.7 ESE 28 41 15 22 1015.8 - 0.0
24/11:00am 25.7 25.1 20.5 73 3.4 SE 24 39 13 21 1016.2 - 0.0
24/10:30am 25.5 24.0 20.3 73 3.4 SE 28 43 15 23 1016.6 - 0.0
24/10:00am 25.4 24.7 20.2 73 3.4 SE 24 39 13 21 1016.9 - 0.0
24/09:30am 25.1 23.4 19.9 73 3.4 SE 28 39 15 21 1016.9 - 0.0
24/09:00am 25.0 24.1 19.8 73 3.4 SE 24 35 13 19 1016.7 1016.6 0.0
24/08:30am 25.0 23.0 20.0 74 3.2 SE 30 44 16 24 1016.3 - 0.0
24/08:00am 24.8 24.1 20.3 76 2.9 SE 24 33 13 18 1015.8 - 0.0
24/07:30am 24.6 24.9 20.3 77 2.8 SE 19 26 10 14 1015.4 - 0.0
24/07:00am 24.4 24.3 19.9 76 2.9 SE 20 30 11 16 1015.2 - 0.0
24/06:30am 24.5 23.8 20.2 77 2.8 SE 24 32 13 17 1014.8 - 0.0
24/06:00am 24.5 24.0 20.0 76 2.9 SE 22 32 12 17 1014.8 1014.7 0.0
24/05:30am 24.5 23.8 20.2 77 2.8 SE 24 32 13 17 1014.8 - 0.0
24/05:00am 24.3 24.5 20.6 80 2.4 SE 20 28 11 15 1014.5 - 0.0
24/04:30am 24.2 24.1 20.7 81 2.3 SE 22 33 12 18 1014.6 - 0.0
24/04:00am 24.6 23.9 20.3 77 2.8 SE 24 35 13 19 1014.7 - 0.0
24/03:30am 24.6 24.4 20.5 78 2.7 SE 22 32 12 17 1014.7 - 0.0
24/03:00am 24.3 24.4 20.4 79 2.5 SE 20 28 11 15 1014.9 1014.8 0.0
24/02:30am 24.7 24.8 20.0 75 3.0 ESE 19 24 10 13 1014.9 - 0.0
24/02:00am 24.7 24.6 20.0 75 3.0 ESE 20 28 11 15 1015.0 - 0.0
24/01:30am 24.5 24.6 20.0 76 2.9 ESE 19 30 10 16 1015.2 - 0.0
24/01:00am 24.9 25.3 20.6 77 2.8 ESE 19 32 10 17 1015.2 - 0.0
24/12:30am 24.6 24.9 20.3 77 2.8 SE 19 24 10 13 1015.4 - 0.0
24/12:00am 24.8 24.9 20.3 76 2.9 SE 20 32 11 17 1015.5 1015.4 0.0
 
Date/Time
EST
Temp
°C
App
Temp
°C
Dew
Point
Rel
Hum
%
Delta-T
°C
Wind Press
QNH
hPa
Press
MSL
hPa
Rain
since 9 am
mm
Dir
 
Spd
km/h
Gust
km/h
Spd
kts
Gust
kts
23/11:30pm 25.0 25.3 20.7 77 2.8 ESE 20 28 11 15 1015.9 - 0.0
23/11:00pm 25.0 24.9 20.7 77 2.8 SE 22 28 12 15 1016.0 - 0.0
23/10:30pm 25.1 24.9 20.6 76 2.9 ESE 22 30 12 16 1016.1 - 0.0
23/10:00pm 25.1 25.3 20.6 76 2.9 ESE 20 28 11 15 1016.3 - 0.0
23/09:30pm 25.2 24.6 20.5 75 3.1 ESE 24 33 13 18 1016.3 - 0.0
23/09:00pm 25.2 25.2 20.9 77 2.8 ESE 22 32 12 17 1016.2 1016.1 0.0
23/08:30pm 25.3 25.7 21.0 77 2.8 ESE 20 30 11 16 1016.1 - 0.0
23/08:00pm 25.2 26.1 21.5 80 2.5 SE 19 28 10 15 1015.8 - 0.0
23/07:30pm 25.0 26.1 21.3 80 2.4 SE 17 26 9 14 1015.5 - 0.0
23/07:00pm 24.9 26.3 21.0 79 2.6 SE 15 20 8 11 1015.1 - 0.0
23/06:30pm 25.2 25.8 21.1 78 2.7 SE 19 28 10 15 1015.0 - 0.0
23/06:00pm 25.4 26.4 21.1 77 2.8 SE 17 24 9 13 1014.7 1014.6 0.0
23/05:30pm 25.8 25.7 20.8 74 3.3 ESE 22 33 12 18 1014.6 - 0.0
23/05:00pm 26.6 26.2 20.9 71 3.8 ESE 24 33 13 18 1014.3 - 0.0
23/04:30pm 26.4 25.5 20.7 71 3.7 ESE 26 39 14 21 1014.1 - 0.0
23/04:00pm 27.6 27.2 20.9 67 4.4 ESE 24 33 13 18 1013.9 - 0.0
23/03:30pm 27.8 27.2 20.4 64 4.9 ESE 24 35 13 19 1013.9 - 0.0
23/03:00pm 28.0 27.5 20.8 65 4.8 E 24 35 13 19 1014.0 1013.9 0.0
23/02:30pm 28.1 27.8 20.4 63 5.1 ESE 22 39 12 21 1014.0 - 0.0
23/02:00pm 28.5 27.0 20.2 60 5.5 ESE 28 39 15 21 1014.2 - 0.0
23/01:30pm 27.5 25.4 19.8 63 5.0 SE 30 41 16 22 1014.5 - 0.0
23/01:00pm 27.6 26.3 19.9 63 5.0 ESE 26 41 14 22 1014.8 - 0.0
23/12:30pm 27.8 27.2 20.4 64 4.9 ESE 24 39 13 21 1015.2 - 0.0
23/12:00pm 27.5 26.7 20.1 64 4.8 ESE 24 37 13 20 1015.5 1015.4 0.0
23/11:30am 28.3 26.4 20.1 61 5.4 ESE 30 50 16 27 1015.8 - 0.0
23/11:27am 28.3 26.6 19.8 60 5.5 ESE 28 50 15 27 1015.8 - 0.0
23/11:00am 28.2 27.7 20.7 63 5.0 ESE 24 35 13 19 1015.9 - 0.0
23/10:30am 27.7 26.9 20.8 66 4.6 ESE 26 37 14 20 1016.1 - 0.0
23/10:00am 27.9 26.3 20.7 65 4.8 SE 30 41 16 22 1016.2 - 0.0
23/09:30am 27.7 26.6 21.0 67 4.4 ESE 28 39 15 21 1016.3 - 0.0
23/09:00am 25.5 26.7 21.4 78 2.7 SE 17 28 9 15 1016.3 1016.2 0.0
23/08:30am 23.5 26.6 22.1 92 0.9 SSE 9 13 5 7 1016.3 - 0.0
23/08:00am 22.7 27.7 22.5 99 0.1 CALM 0 6 0 3 1016.0 - 0.0
23/07:30am 21.1 25.3 20.9 99 0.1 CALM 0 0 0 0 1015.8 - 0.0
23/07:00am 20.5 24.3 20.2 98 0.2 CALM 0 0 0 0 1015.3 - 0.0
23/06:30am 20.0 23.6 19.7 98 0.2 CALM 0 0 0 0 1014.9 - 0.0
23/06:00am 19.7 23.0 19.2 97 0.3 CALM 0 0 0 0 1014.7 1014.6 0.0
23/05:30am 19.9 23.3 19.4 97 0.3 CALM 0 0 0 0 1014.6 - 0.0
23/05:00am 20.2 23.9 19.9 98 0.2 CALM 0 0 0 0 1014.6 - 0.0
23/04:30am 20.3 24.0 20.0 98 0.2 CALM 0 0 0 0 1014.6 - 0.0
23/04:21am 20.1 23.6 19.6 97 0.3 CALM 0 0 0 0 1014.5 - 0.0
23/04:00am 20.0 23.5 19.5 97 0.3 CALM 0 0 0 0 1014.5 - 0.0
23/03:50am 20.0 23.6 19.7 98 0.2 CALM 0 0 0 0 1014.5 - 0.0
23/03:30am 19.6 22.9 19.1 97 0.3 CALM 0 0 0 0 1014.5 - 0.0
23/03:00am 19.9 23.3 19.4 97 0.3 CALM 0 0 0 0 1014.7 1014.6 0.0
23/02:30am 19.8 23.2 19.3 97 0.3 CALM 0 0 0 0 1014.8 - 0.0
23/02:00am 19.8 23.2 19.3 97 0.3 CALM 0 0 0 0 1015.0 - 0.0
23/01:30am 20.0 23.5 19.5 97 0.3 CALM 0 0 0 0 1015.3 - 0.0
23/01:00am 19.9 23.2 19.2 96 0.4 CALM 0 0 0 0 1015.4 - 0.0
23/12:30am 20.1 23.5 19.4 96 0.4 CALM 0 0 0 0 1015.6 - 0.0
23/12:00am 20.3 23.8 19.6 96 0.4 CALM 0 0 0 0 1015.8 1015.7 0.0
 
Date/Time
EST
Temp
°C
App
Temp
°C
Dew
Point
Rel
Hum
%
Delta-T
°C
Wind Press
QNH
hPa
Press
MSL
hPa
Rain
since 9 am
mm
Dir
 
Spd
km/h
Gust
km/h
Spd
kts
Gust
kts
22/11:30pm 20.7 24.4 20.0 96 0.4 CALM 0 0 0 0 1015.9 - 0.0
22/11:21pm 20.7 24.4 20.0 96 0.4 CALM 0 0 0 0 1015.9 - 0.0
22/11:02pm 20.9 24.7 20.2 96 0.4 CALM 0 0 0 0 1016.0 - 0.0
22/11:00pm 20.8 24.6 20.1 96 0.4 CALM 0 0 0 0 1016.0 - 0.0
22/10:30pm 20.8 24.6 20.1 96 0.4 CALM 0 4 0 2 1016.0 - 0.0
22/10:00pm 21.0 24.8 20.2 95 0.5 CALM 0 0 0 0 1015.8 - 0.0
22/09:30pm 21.3 25.3 20.5 95 0.5 CALM 0 0 0 0 1016.0 - 0.0
22/09:00pm 21.6 25.6 20.6 94 0.6 CALM 0 0 0 0 1015.9 1015.8 0.0
22/08:30pm 21.7 25.7 20.5 93 0.8 CALM 0 0 0 0 1015.9 - 0.0
22/08:00pm 22.3 26.2 20.4 89 1.2 CALM 0 6 0 3 1015.6 - 0.0
22/07:30pm 22.7 25.6 20.6 88 1.4 ESE 6 7 3 4 1015.2 - 0.0
22/07:00pm 23.5 26.4 20.6 84 1.9 SE 6 9 3 5 1014.8 - 0.0
22/06:30pm 24.8 27.6 20.9 79 2.6 ESE 7 11 4 6 1014.5 - 0.0
22/06:00pm 25.8 27.7 20.6 73 3.4 ESE 11 15 6 8 1014.3 1014.2 0.0
22/05:30pm 26.6 27.7 20.4 69 4.1 ESE 15 22 8 12 1014.3 - 0.0
22/05:00pm 27.3 28.0 20.4 66 4.5 ESE 17 24 9 13 1014.2 - 0.0
22/04:30pm 27.8 28.6 20.6 65 4.7 ESE 17 22 9 12 1014.0 - 0.0
22/04:00pm 28.1 28.3 20.6 63 4.9 ESE 20 30 11 16 1013.7 - 0.0
22/03:30pm 28.2 28.6 21.0 65 4.8 ESE 20 32 11 17 1013.6 - 0.0
22/03:00pm 28.0 28.5 21.1 66 4.6 E 20 32 11 17 1013.6 1013.5 0.0
22/02:30pm 28.7 29.7 21.0 63 5.1 E 17 26 9 14 1013.7 - 0.0
22/02:00pm 28.8 28.5 20.3 60 5.6 ESE 22 32 12 17 1013.9 - 0.0
22/01:30pm 28.4 28.4 20.1 60 5.4 E 20 32 11 17 1014.1 - 0.0
22/01:00pm 29.2 30.5 21.7 64 5.0 E 17 28 9 15 1014.4 - 0.0
22/12:30pm 29.0 30.3 21.7 64 4.9 E 17 26 9 14 1014.8 - 0.0
22/12:00pm 29.1 30.7 22.1 66 4.7 E 17 24 9 13 1015.1 1015.0 0.0
22/11:30am 28.2 28.6 20.7 63 5.0 SE 19 24 10 13 1015.3 - 0.0
22/11:00am 28.2 29.9 21.0 65 4.8 SE 13 20 7 11 1015.6 - 0.0
22/10:30am 27.8 30.1 22.1 71 3.8 ESE 13 20 7 11 1016.1 - 0.0
22/10:05am 27.9 30.6 22.8 74 3.5 SSE 13 24 7 13 1016.2 - 0.0
22/10:00am 27.1 29.3 21.8 73 3.5 SSE 13 20 7 11 1016.4 - 0.0
22/09:50am 27.1 29.4 22.1 74 3.4 SE 13 19 7 10 1016.4 - 0.0
22/09:30am 26.9 29.9 23.4 81 2.4 SE 13 19 7 10 1016.5 - 0.0

Other Formats:

Comma delimited format used in spreadsheet applications
http://www.bom.gov.au/fwo/IDQ60801/IDQ60801.94186.axf

JavaScript Object Notation format (JSON) in row-major order
http://www.bom.gov.au/fwo/IDQ60801/IDQ60801.94186.json